Time;durP1;ratioP1;P1;durP2;ratioP2;P2;SDS_P1;SDS_P2;PMS_P1;PMS_P2;Temp;Humidity;BMP_temperature;BMP_pressure;BME280_temperature;BME280_humidity;BME280_pressure;Samples;Min_cycle;Max_cycle;Signal;HPM_P1;HPM_P2
2022/03/15 00:01:10;;;;;;;;;;;3.50;94.80;;;;;;5026439;28;20138;-75
2022/03/15 00:03:36;;;;;;;;;;;3.50;94.60;;;;;;5043339;28;19909;-76
2022/03/15 00:06:02;;;;;;;;;;;3.50;94.50;;;;;;5043004;28;19963;-78
2022/03/15 00:08:28;;;;;;;;;;;3.40;94.70;;;;;;5042724;28;20203;-77
2022/03/15 00:10:58;;;;;;;;;;;3.30;94.90;;;;;;5042778;28;20118;-77
2022/03/15 00:13:26;;;;;;;;;;;3.30;95.10;;;;;;5043434;28;19944;-77
2022/03/15 00:15:52;;;;;;;;;;;3.20;95.20;;;;;;5026856;28;19909;-77
2022/03/15 00:18:20;;;;;;;;;;;3.20;95.40;;;;;;5026118;28;19921;-76
2022/03/15 00:20:47;;;;;;;;;;;3.10;95.40;;;;;;5043600;28;20173;-77
2022/03/15 00:23:12;;;;;;;;;;;3.10;95.40;;;;;;5025986;28;19975;-77
2022/03/15 00:25:38;;;;;;;;;;;3.20;95.40;;;;;;5026062;28;19980;-77
2022/03/15 00:28:04;;;;;;;;;;;3.30;95.30;;;;;;5043647;28;19909;-77
2022/03/15 00:30:29;;;;;;;;;;;3.20;95.20;;;;;;5042293;28;19913;-77
2022/03/15 00:32:55;;;;;;;;;;;3.10;95.50;;;;;;5008985;28;19920;-76
2022/03/15 00:35:24;;;;;;;;;;;3.10;95.70;;;;;;5009513;28;20222;-77
2022/03/15 00:37:51;;;;;;;;;;;3.10;95.80;;;;;;5042347;28;19921;-77
2022/03/15 00:40:17;;;;;;;;;;;3.10;95.70;;;;;;5042372;28;19935;-77
2022/03/15 00:42:46;;;;;;;;;;;3.10;95.80;;;;;;5025917;28;20037;-76
2022/03/15 00:45:12;;;;;;;;;;;3.10;95.70;;;;;;5027241;28;20224;-76
2022/03/15 00:47:38;;;;;;;;;;;3.00;95.90;;;;;;5042804;28;19972;-75
2022/03/15 00:50:04;;;;;;;;;;;3.10;95.60;;;;;;5044533;28;19913;-76
2022/03/15 00:52:30;;;;;;;;;;;3.10;95.60;;;;;;5042926;28;19916;-77
2022/03/15 00:54:55;;;;;;;;;;;3.00;95.80;;;;;;5043261;28;20104;-76
2022/03/15 00:57:21;;;;;;;;;;;2.90;95.80;;;;;;5042930;28;19909;-76
2022/03/15 00:59:47;;;;;;;;;;;2.80;95.90;;;;;;5042866;28;19913;-76
2022/03/15 01:02:12;;;;;;;;;;;2.80;95.80;;;;;;5059111;28;19932;-76
2022/03/15 01:04:38;;;;;;;;;;;2.80;95.90;;;;;;5043042;28;20208;-75
2022/03/15 01:07:04;;;;;;;;;;;2.80;95.70;;;;;;5043048;28;19909;-75
2022/03/15 01:09:29;;;;;;;;;;;2.80;95.50;;;;;;5009963;28;20112;-77
2022/03/15 01:11:56;;;;;;;;;;;2.70;95.50;;;;;;5044235;28;19913;-77
2022/03/15 01:14:22;;;;;;;;;;;2.70;95.70;;;;;;5028700;28;19949;-77
2022/03/15 01:16:48;;;;;;;;;;;2.60;95.80;;;;;;5028788;28;19916;-77
2022/03/15 01:19:14;;;;;;;;;;;2.60;95.70;;;;;;5043505;28;19935;-77
2022/03/15 01:21:40;;;;;;;;;;;2.60;95.70;;;;;;5011351;28;19972;-78
2022/03/15 01:24:06;;;;;;;;;;;2.50;95.80;;;;;;5011701;28;20242;-78
2022/03/15 01:26:33;;;;;;;;;;;2.60;95.80;;;;;;5011108;28;19909;-78
2022/03/15 01:29:00;;;;;;;;;;;2.50;95.80;;;;;;5043793;28;19909;-78
2022/03/15 01:31:26;;;;;;;;;;;2.50;96.10;;;;;;5012773;28;19913;-78
2022/03/15 01:33:52;;;;;;;;;;;2.60;95.70;;;;;;5049704;28;20004;-78
2022/03/15 01:36:18;;;;;;;;;;;2.60;95.90;;;;;;5014134;28;20291;-78
2022/03/15 01:38:43;;;;;;;;;;;2.60;95.90;;;;;;5026671;28;19920;-76
2022/03/15 01:41:09;;;;;;;;;;;2.50;96.00;;;;;;5029706;28;19909;-76
2022/03/15 01:43:35;;;;;;;;;;;2.50;96.00;;;;;;5045907;28;19913;-77
2022/03/15 01:46:01;;;;;;;;;;;2.40;96.20;;;;;;5028641;28;19910;-77
2022/03/15 01:48:27;;;;;;;;;;;2.40;96.30;;;;;;5032729;28;19915;-78
2022/03/15 01:50:53;;;;;;;;;;;2.40;96.40;;;;;;5048888;28;19969;-77
2022/03/15 01:53:19;;;;;;;;;;;2.30;96.40;;;;;;5046376;28;19913;-77
2022/03/15 01:55:45;;;;;;;;;;;2.30;96.70;;;;;;5043095;28;19909;-77
2022/03/15 01:58:10;;;;;;;;;;;2.30;96.70;;;;;;5061681;28;19946;-79
2022/03/15 02:00:36;;;;;;;;;;;2.30;96.70;;;;;;5043257;28;19909;-76
2022/03/15 02:03:03;;;;;;;;;;;2.30;96.50;;;;;;5041611;28;19918;-75
2022/03/15 02:05:29;;;;;;;;;;;2.30;96.50;;;;;;5042215;28;19909;-77
2022/03/15 02:07:56;;;;;;;;;;;2.30;96.60;;;;;;5042044;28;19909;-77
2022/03/15 02:10:22;;;;;;;;;;;2.20;96.60;;;;;;5042936;28;19940;-77
2022/03/15 02:12:48;;;;;;;;;;;2.30;96.70;;;;;;5025121;28;19924;-77
2022/03/15 02:15:14;;;;;;;;;;;2.20;96.80;;;;;;5025469;28;20093;-77
2022/03/15 02:17:40;;;;;;;;;;;2.30;96.90;;;;;;5042637;28;19934;-77
2022/03/15 02:20:10;;;;;;;;;;;2.30;96.90;;;;;;5025499;28;19909;-79
2022/03/15 02:22:36;;;;;;;;;;;2.30;97.00;;;;;;5025554;28;20196;-77
2022/03/15 02:25:02;;;;;;;;;;;2.30;97.00;;;;;;5025222;28;20146;-77
2022/03/15 02:27:28;;;;;;;;;;;2.30;97.00;;;;;;5025346;28;19909;-77
2022/03/15 02:29:53;;;;;;;;;;;2.20;97.10;;;;;;5043039;28;19943;-76
2022/03/15 02:32:19;;;;;;;;;;;2.30;97.00;;;;;;5072391;22;20116;-72
2022/03/15 02:34:45;;;;;;;;;;;2.20;97.10;;;;;;5051544;28;19911;-72
2022/03/15 02:37:11;;;;;;;;;;;2.30;97.00;;;;;;5067225;28;19916;-72
2022/03/15 02:39:36;;;;;;;;;;;2.30;96.90;;;;;;5066151;28;19936;-72
2022/03/15 02:42:02;;;;;;;;;;;2.30;96.90;;;;;;5050992;28;19909;-71
2022/03/15 02:44:28;;;;;;;;;;;2.30;97.00;;;;;;5062610;28;19955;-70
2022/03/15 02:46:53;;;;;;;;;;;2.30;96.90;;;;;;5046647;28;19976;-71
2022/03/15 02:49:19;;;;;;;;;;;2.20;96.90;;;;;;5045700;28;19909;-71
2022/03/15 02:51:45;;;;;;;;;;;2.20;96.90;;;;;;5052770;28;20147;-70
2022/03/15 02:54:13;;;;;;;;;;;2.20;97.10;;;;;;5046546;28;20020;-70
2022/03/15 02:56:42;;;;;;;;;;;2.20;97.10;;;;;;5049770;28;19909;-71
2022/03/15 02:59:11;;;;;;;;;;;2.30;97.00;;;;;;5049603;28;19913;-70
2022/03/15 03:01:37;;;;;;;;;;;2.30;96.90;;;;;;5050884;28;19909;-70
2022/03/15 03:04:03;;;;;;;;;;;2.30;96.80;;;;;;5045130;28;19937;-70
2022/03/15 03:06:28;;;;;;;;;;;2.30;96.90;;;;;;5046318;28;19948;-70
2022/03/15 03:08:54;;;;;;;;;;;2.20;97.10;;;;;;5048380;28;20116;-70
2022/03/15 03:11:20;;;;;;;;;;;2.20;97.20;;;;;;5061286;28;20000;-70
2022/03/15 03:13:47;;;;;;;;;;;2.10;97.20;;;;;;5044937;28;19909;-70
2022/03/15 03:16:13;;;;;;;;;;;2.20;97.20;;;;;;5046087;28;19951;-70
2022/03/15 03:18:39;;;;;;;;;;;2.20;97.20;;;;;;5044495;28;19913;-70
2022/03/15 03:21:05;;;;;;;;;;;2.30;97.00;;;;;;5045685;28;19936;-70
2022/03/15 03:23:33;;;;;;;;;;;2.40;96.90;;;;;;5044788;28;19909;-70
2022/03/15 03:25:59;;;;;;;;;;;2.40;96.90;;;;;;5045851;28;19956;-69
2022/03/15 03:28:27;;;;;;;;;;;2.50;96.70;;;;;;5045965;28;19909;-68
2022/03/15 03:30:53;;;;;;;;;;;2.50;96.70;;;;;;5045383;28;19909;-69
2022/03/15 03:33:19;;;;;;;;;;;2.50;96.60;;;;;;5044462;28;19935;-70
2022/03/15 03:35:45;;;;;;;;;;;2.50;96.40;;;;;;5045801;28;19913;-70
2022/03/15 03:38:11;;;;;;;;;;;2.40;96.70;;;;;;5027987;28;19917;-70
2022/03/15 03:40:37;;;;;;;;;;;2.40;96.80;;;;;;5051103;28;19909;-71
2022/03/15 03:43:04;;;;;;;;;;;2.50;96.60;;;;;;5045302;28;19932;-70
2022/03/15 03:45:29;;;;;;;;;;;2.50;96.60;;;;;;5044357;28;19916;-70
2022/03/15 03:47:55;;;;;;;;;;;2.30;96.80;;;;;;5044029;28;19909;-70
2022/03/15 03:50:21;;;;;;;;;;;2.20;97.00;;;;;;5045310;28;19908;-70
2022/03/15 03:52:47;;;;;;;;;;;2.30;97.00;;;;;;5044892;28;20219;-70
2022/03/15 03:55:12;;;;;;;;;;;2.40;96.90;;;;;;5045308;28;19916;-70
2022/03/15 03:57:38;;;;;;;;;;;2.40;96.90;;;;;;5060772;28;20290;-68
2022/03/15 04:00:05;;;;;;;;;;;2.40;96.80;;;;;;5045201;28;19948;-68
2022/03/15 04:02:31;;;;;;;;;;;2.40;96.70;;;;;;5043397;28;19909;-68
2022/03/15 04:04:56;;;;;;;;;;;2.40;96.80;;;;;;5045148;28;20204;-68
2022/03/15 04:07:22;;;;;;;;;;;2.40;96.60;;;;;;5045006;28;19916;-68
2022/03/15 04:09:48;;;;;;;;;;;2.40;96.70;;;;;;5044984;28;19941;-68
2022/03/15 04:12:16;;;;;;;;;;;2.40;96.60;;;;;;5043641;28;19909;-68
2022/03/15 04:14:45;;;;;;;;;;;2.40;96.80;;;;;;5044914;28;19931;-68
2022/03/15 04:17:11;;;;;;;;;;;2.40;96.70;;;;;;5044649;28;19932;-70
2022/03/15 04:19:36;;;;;;;;;;;2.40;96.70;;;;;;5044870;28;20200;-70
2022/03/15 04:22:02;;;;;;;;;;;2.30;96.90;;;;;;5044434;28;19909;-71
2022/03/15 04:24:28;;;;;;;;;;;2.30;97.30;;;;;;5044784;28;20197;-71
2022/03/15 04:26:53;;;;;;;;;;;2.30;97.20;;;;;;5043570;28;19975;-71
2022/03/15 04:29:20;;;;;;;;;;;2.40;97.20;;;;;;5043555;28;19976;-72
2022/03/15 04:31:46;;;;;;;;;;;2.40;96.90;;;;;;5059411;28;19909;-70
2022/03/15 04:34:12;;;;;;;;;;;2.40;96.90;;;;;;5059863;28;20085;-70
2022/03/15 04:36:39;;;;;;;;;;;2.50;96.90;;;;;;5043238;28;20174;-70
2022/03/15 04:39:05;;;;;;;;;;;2.60;96.50;;;;;;5044507;28;19913;-70
2022/03/15 04:41:30;;;;;;;;;;;2.40;96.80;;;;;;5042825;28;19955;-70
2022/03/15 04:43:56;;;;;;;;;;;2.50;96.80;;;;;;5044341;28;19917;-70
2022/03/15 04:46:22;;;;;;;;;;;2.50;96.90;;;;;;5043151;28;19909;-71
2022/03/15 04:48:48;;;;;;;;;;;2.40;96.90;;;;;;5042052;28;20179;-71
2022/03/15 04:51:14;;;;;;;;;;;2.40;96.80;;;;;;5043849;28;19913;-70
2022/03/15 04:53:40;;;;;;;;;;;2.30;97.00;;;;;;5043713;28;19971;-72
2022/03/15 04:56:06;;;;;;;;;;;2.30;97.00;;;;;;5044140;28;20244;-71
2022/03/15 04:58:32;;;;;;;;;;;2.30;97.20;;;;;;5044004;28;20283;-71
2022/03/15 05:00:58;;;;;;;;;;;2.30;97.10;;;;;;5026279;28;19984;-72
2022/03/15 05:03:23;;;;;;;;;;;2.30;97.10;;;;;;5043684;28;19909;-71
2022/03/15 05:05:49;;;;;;;;;;;2.30;97.20;;;;;;5059351;28;19909;-71
2022/03/15 05:08:15;;;;;;;;;;;2.20;97.30;;;;;;5042748;28;19910;-72
2022/03/15 05:13:26;;;;;;;;;;;2.20;97.30;;;;;;5043569;28;19940;-71
2022/03/15 05:15:53;;;;;;;;;;;2.20;97.40;;;;;;5041903;28;19913;-70
2022/03/15 05:18:19;;;;;;;;;;;2.20;97.40;;;;;;5043189;28;19920;-71
2022/03/15 05:20:45;;;;;;;;;;;2.20;97.40;;;;;;5054057;28;19909;-71
2022/03/15 05:23:11;;;;;;;;;;;2.10;97.40;;;;;;5040041;28;19913;-70
2022/03/15 05:25:36;;;;;;;;;;;2.10;97.50;;;;;;5059132;28;19936;-70
2022/03/15 05:28:02;;;;;;;;;;;2.20;97.40;;;;;;5043570;28;20191;-70
2022/03/15 05:30:28;;;;;;;;;;;2.20;97.20;;;;;;5042106;28;19928;-71
2022/03/15 05:32:54;;;;;;;;;;;2.30;97.20;;;;;;5042684;28;19956;-70
2022/03/15 05:35:19;;;;;;;;;;;2.20;97.10;;;;;;5043177;28;19936;-70
2022/03/15 05:37:45;;;;;;;;;;;2.20;97.20;;;;;;5043567;28;19976;-71
2022/03/15 05:40:11;;;;;;;;;;;2.10;97.40;;;;;;5045835;28;19923;-72
2022/03/15 05:42:37;;;;;;;;;;;2.10;97.50;;;;;;5042774;28;19909;-71
2022/03/15 05:45:03;;;;;;;;;;;2.10;97.50;;;;;;5058721;28;20179;-71
2022/03/15 05:47:29;;;;;;;;;;;2.20;97.60;;;;;;5041719;28;19913;-71
2022/03/15 05:49:55;;;;;;;;;;;2.30;97.40;;;;;;5042911;28;19927;-71
2022/03/15 05:52:20;;;;;;;;;;;2.30;97.40;;;;;;5042771;28;20314;-71
2022/03/15 05:54:46;;;;;;;;;;;2.40;97.40;;;;;;5041980;28;19925;-71
2022/03/15 05:57:12;;;;;;;;;;;2.30;97.30;;;;;;5042926;28;19944;-70
2022/03/15 05:59:37;;;;;;;;;;;2.40;97.30;;;;;;5040211;28;19995;-71
2022/03/15 06:02:03;;;;;;;;;;;2.50;97.20;;;;;;5042263;28;19917;-71
2022/03/15 06:04:29;;;;;;;;;;;2.50;97.00;;;;;;5042928;28;19913;-73
2022/03/15 06:06:57;;;;;;;;;;;2.50;97.00;;;;;;5058413;28;19909;-73
2022/03/15 06:09:24;;;;;;;;;;;2.50;97.10;;;;;;5042944;28;19909;-73
2022/03/15 06:11:51;;;;;;;;;;;2.60;97.00;;;;;;5025128;28;20119;-73
2022/03/15 06:14:18;;;;;;;;;;;2.60;96.80;;;;;;5041970;28;20212;-72
2022/03/15 06:16:44;;;;;;;;;;;2.60;96.80;;;;;;5041854;28;20156;-73
2022/03/15 06:19:10;;;;;;;;;;;2.60;96.80;;;;;;5057880;28;19913;-72
2022/03/15 06:21:36;;;;;;;;;;;2.70;96.80;;;;;;5041527;28;19909;-72
2022/03/15 06:24:02;;;;;;;;;;;2.80;96.80;;;;;;5048478;28;19975;-73
2022/03/15 06:26:28;;;;;;;;;;;2.90;96.60;;;;;;5042845;28;19916;-73
2022/03/15 06:28:54;;;;;;;;;;;2.90;96.50;;;;;;5058348;28;20090;-72
2022/03/15 06:31:20;;;;;;;;;;;3.00;96.30;;;;;;5058147;28;19916;-72
2022/03/15 06:33:47;;;;;;;;;;;2.80;96.40;;;;;;5042445;28;20271;-72
2022/03/15 06:36:14;;;;;;;;;;;2.80;96.60;;;;;;5041607;28;19917;-72
2022/03/15 06:38:40;;;;;;;;;;;2.90;96.60;;;;;;5041554;28;20259;-73
2022/03/15 06:41:11;;;;;;;;;;;3.00;96.50;;;;;;5041301;28;19909;-72
2022/03/15 06:43:39;;;;;;;;;;;3.00;96.20;;;;;;5043704;28;19913;-72
2022/03/15 06:46:05;;;;;;;;;;;3.10;96.30;;;;;;5043791;28;19913;-72
2022/03/15 06:48:31;;;;;;;;;;;3.10;96.20;;;;;;5042533;28;20149;-73
2022/03/15 06:50:57;;;;;;;;;;;3.10;96.20;;;;;;5041401;28;19912;-72
2022/03/15 06:53:23;;;;;;;;;;;3.20;96.00;;;;;;5042755;28;19909;-72
2022/03/15 06:55:48;;;;;;;;;;;3.10;96.30;;;;;;5041632;28;20076;-72
2022/03/15 06:58:14;;;;;;;;;;;3.10;96.30;;;;;;5042646;28;19949;-72
2022/03/15 07:00:40;;;;;;;;;;;3.30;96.00;;;;;;5042912;28;19909;-73
2022/03/15 07:03:06;;;;;;;;;;;3.20;96.10;;;;;;5041393;28;19917;-72
2022/03/15 07:05:31;;;;;;;;;;;3.30;96.20;;;;;;5041244;28;19909;-72
2022/03/15 07:07:57;;;;;;;;;;;3.40;96.00;;;;;;5042495;28;19913;-72
2022/03/15 07:10:23;;;;;;;;;;;3.50;95.90;;;;;;5042369;28;19913;-73
2022/03/15 07:12:48;;;;;;;;;;;3.60;95.70;;;;;;5041897;28;19936;-73
2022/03/15 07:15:16;;;;;;;;;;;3.60;95.70;;;;;;5041098;28;19975;-73
2022/03/15 07:17:50;;;;;;;;;;;3.60;95.60;;;;;;5045844;28;20167;-74
2022/03/15 07:20:16;;;;;;;;;;;3.60;95.60;;;;;;5045840;28;19976;-73
2022/03/15 07:22:42;;;;;;;;;;;3.60;95.30;;;;;;5044607;28;19940;-73
2022/03/15 07:25:08;;;;;;;;;;;3.70;95.30;;;;;;5045776;28;20116;-73
2022/03/15 07:27:34;;;;;;;;;;;3.90;95.30;;;;;;5044794;28;19947;-73
2022/03/15 07:30:00;;;;;;;;;;;3.90;95.10;;;;;;5045589;28;20108;-73
2022/03/15 07:32:26;;;;;;;;;;;4.00;95.10;;;;;;5044134;28;19917;-73
2022/03/15 07:34:51;;;;;;;;;;;4.10;95.10;;;;;;5027603;28;20019;-73
2022/03/15 07:37:17;;;;;;;;;;;4.20;95.20;;;;;;5045627;28;19980;-73
2022/03/15 07:39:43;;;;;;;;;;;4.30;94.70;;;;;;5044460;28;19927;-73
2022/03/15 07:42:09;;;;;;;;;;;4.40;94.60;;;;;;5045431;28;20210;-75
2022/03/15 07:44:35;;;;;;;;;;;4.50;94.30;;;;;;5028018;28;20298;-75
2022/03/15 07:47:00;;;;;;;;;;;4.60;94.10;;;;;;5045723;28;19909;-74
2022/03/15 07:49:27;;;;;;;;;;;4.70;94.10;;;;;;5044474;28;19909;-74
2022/03/15 07:51:52;;;;;;;;;;;4.80;94.10;;;;;;5044067;28;19916;-75
2022/03/15 07:54:18;;;;;;;;;;;4.80;94.00;;;;;;5029540;28;19909;-75
2022/03/15 07:56:44;;;;;;;;;;;4.80;93.90;;;;;;5045645;28;19909;-75
2022/03/15 07:59:10;;;;;;;;;;;4.90;94.00;;;;;;5044216;28;19913;-75
2022/03/15 08:01:36;;;;;;;;;;;5.00;93.90;;;;;;5044165;28;19998;-75
2022/03/15 08:04:02;;;;;;;;;;;5.10;93.70;;;;;;5027868;28;19909;-75
2022/03/15 08:06:30;;;;;;;;;;;5.20;93.60;;;;;;5044290;28;19909;-75
2022/03/15 08:08:58;;;;;;;;;;;5.30;93.30;;;;;;5044263;28;19909;-75
2022/03/15 08:11:25;;;;;;;;;;;5.40;93.00;;;;;;5045053;28;19909;-75
2022/03/15 08:13:54;;;;;;;;;;;5.40;92.90;;;;;;5027706;28;20109;-74
2022/03/15 08:16:21;;;;;;;;;;;5.50;92.60;;;;;;5045230;28;19935;-74
2022/03/15 08:18:48;;;;;;;;;;;5.50;92.50;;;;;;5043681;28;19914;-74
2022/03/15 08:21:13;;;;;;;;;;;5.60;92.60;;;;;;5044712;28;19909;-75
2022/03/15 08:23:39;;;;;;;;;;;5.70;92.70;;;;;;5046267;28;19928;-75
2022/03/15 08:26:05;;;;;;;;;;;5.70;92.50;;;;;;5044235;28;19909;-74
2022/03/15 08:28:31;;;;;;;;;;;5.80;92.40;;;;;;5043326;28;19943;-74
2022/03/15 08:30:58;;;;;;;;;;;5.90;92.30;;;;;;5045001;28;19976;-74
2022/03/15 08:33:24;;;;;;;;;;;5.90;92.40;;;;;;5117991;22;19939;-65
2022/03/15 08:35:49;;;;;;;;;;;5.90;92.70;;;;;;5096959;28;19975;-65
2022/03/15 08:38:15;;;;;;;;;;;6.00;92.70;;;;;;5103527;28;20389;-66
2022/03/15 08:40:41;;;;;;;;;;;6.10;92.60;;;;;;5103420;28;19971;-66
2022/03/15 08:43:07;;;;;;;;;;;6.20;92.40;;;;;;5102359;28;19915;-66
2022/03/15 08:45:33;;;;;;;;;;;6.30;92.30;;;;;;5103686;28;19946;-66
2022/03/15 08:47:59;;;;;;;;;;;6.30;92.10;;;;;;5103271;28;19939;-66
2022/03/15 08:50:25;;;;;;;;;;;6.40;91.80;;;;;;5103385;28;20203;-66
2022/03/15 08:52:50;;;;;;;;;;;6.40;91.50;;;;;;5102697;28;19908;-66
2022/03/15 08:55:16;;;;;;;;;;;6.40;91.70;;;;;;5103239;28;19908;-66
2022/03/15 08:57:42;;;;;;;;;;;6.50;91.70;;;;;;5103037;28;19908;-66
2022/03/15 09:00:08;;;;;;;;;;;6.60;91.60;;;;;;5102069;28;20040;-66
2022/03/15 09:02:34;;;;;;;;;;;6.70;91.70;;;;;;5097878;28;19951;-67
2022/03/15 09:05:00;;;;;;;;;;;6.90;91.10;;;;;;5082944;28;19916;-66
2022/03/15 09:07:27;;;;;;;;;;;6.90;91.00;;;;;;5082751;28;19908;-66
2022/03/15 09:09:53;;;;;;;;;;;7.00;90.90;;;;;;5082944;28;19908;-65
2022/03/15 09:12:19;;;;;;;;;;;7.10;90.70;;;;;;5082306;28;19909;-66
2022/03/15 09:14:45;;;;;;;;;;;7.30;90.50;;;;;;5082668;28;20270;-66
2022/03/15 09:17:11;;;;;;;;;;;7.50;90.40;;;;;;5082421;28;19909;-67
2022/03/15 09:19:36;;;;;;;;;;;7.50;90.10;;;;;;5083134;28;19931;-66
2022/03/15 09:22:03;;;;;;;;;;;7.70;89.50;;;;;;5082500;28;20134;-66
2022/03/15 09:24:32;;;;;;;;;;;7.80;89.60;;;;;;5083404;28;19908;-65
2022/03/15 09:26:57;;;;;;;;;;;7.80;88.80;;;;;;5083398;28;19923;-66
2022/03/15 09:29:24;;;;;;;;;;;7.80;89.00;;;;;;5082758;28;19909;-66
2022/03/15 09:31:49;;;;;;;;;;;7.80;89.20;;;;;;5082436;28;19909;-66
2022/03/15 09:34:17;;;;;;;;;;;7.80;89.60;;;;;;5082420;28;20223;-66
2022/03/15 09:36:44;;;;;;;;;;;7.90;89.70;;;;;;5082528;28;19916;-66
2022/03/15 09:39:09;;;;;;;;;;;8.00;89.80;;;;;;5081970;28;19913;-67
2022/03/15 09:41:38;;;;;;;;;;;8.00;89.50;;;;;;5082126;28;19975;-66
2022/03/15 09:44:04;;;;;;;;;;;8.00;89.50;;;;;;5082229;28;19946;-66
2022/03/15 09:46:29;;;;;;;;;;;8.10;89.50;;;;;;5080903;28;20089;-67
2022/03/15 09:48:55;;;;;;;;;;;8.00;89.40;;;;;;5080819;28;19912;-67
2022/03/15 09:51:21;;;;;;;;;;;8.10;89.60;;;;;;5081111;28;19908;-67
2022/03/15 09:53:47;;;;;;;;;;;8.10;89.50;;;;;;5082003;28;20115;-66
2022/03/15 09:56:16;;;;;;;;;;;8.20;89.50;;;;;;5081952;28;19908;-66
2022/03/15 09:58:41;;;;;;;;;;;8.30;89.60;;;;;;5102307;28;19912;-67
2022/03/15 10:01:07;;;;;;;;;;;8.30;89.60;;;;;;5101969;28;19979;-67
2022/03/15 10:03:34;;;;;;;;;;;8.40;89.20;;;;;;5101854;28;19908;-67
2022/03/15 10:06:00;;;;;;;;;;;8.40;89.50;;;;;;5102143;28;19960;-66
2022/03/15 10:08:25;;;;;;;;;;;8.40;88.90;;;;;;5084058;28;19920;-67
2022/03/15 10:10:51;;;;;;;;;;;8.40;88.60;;;;;;5082479;28;19963;-67
2022/03/15 10:13:18;;;;;;;;;;;8.40;88.60;;;;;;5081899;28;20164;-66
2022/03/15 10:15:53;;;;;;;;;;;8.50;88.40;;;;;;5081967;28;19908;-67
2022/03/15 10:18:19;;;;;;;;;;;8.70;88.40;;;;;;5081456;28;19958;-67
2022/03/15 10:20:46;;;;;;;;;;;8.90;86.80;;;;;;5081520;28;19908;-66
2022/03/15 10:23:11;;;;;;;;;;;9.20;85.40;;;;;;5081643;28;19939;-67
2022/03/15 10:25:41;;;;;;;;;;;9.10;85.80;;;;;;5081733;28;19946;-67
2022/03/15 10:28:07;;;;;;;;;;;9.30;85.60;;;;;;5081802;28;19938;-66
2022/03/15 10:30:34;;;;;;;;;;;9.30;84.90;;;;;;5081438;28;19924;-67
2022/03/15 10:32:59;;;;;;;;;;;9.40;84.70;;;;;;5079796;28;19913;-66
2022/03/15 10:35:28;;;;;;;;;;;9.60;84.30;;;;;;5081828;28;19979;-66
2022/03/15 10:37:54;;;;;;;;;;;9.80;82.80;;;;;;5081553;28;19915;-67
2022/03/15 10:40:31;;;;;;;;;;;9.90;83.10;;;;;;5081371;28;20201;-66
2022/03/15 10:43:08;;;;;;;;;;;10.10;81.70;;;;;;5081397;28;19908;-65
2022/03/15 10:45:34;;;;;;;;;;;10.30;80.60;;;;;;5081560;28;19908;-66
2022/03/15 10:48:00;;;;;;;;;;;10.40;79.70;;;;;;5081035;28;19924;-65
2022/03/15 10:50:26;;;;;;;;;;;10.40;80.10;;;;;;5081762;28;19935;-65
2022/03/15 10:52:53;;;;;;;;;;;10.50;79.40;;;;;;5085015;28;19908;-65
2022/03/15 10:55:22;;;;;;;;;;;10.50;79.40;;;;;;5084046;28;19976;-65
2022/03/15 10:57:53;;;;;;;;;;;10.50;79.10;;;;;;5085141;28;19976;-66
2022/03/15 11:00:21;;;;;;;;;;;10.50;79.50;;;;;;5085354;28;19908;-67
2022/03/15 11:02:47;;;;;;;;;;;10.40;80.70;;;;;;5084377;28;19971;-67
2022/03/15 11:05:14;;;;;;;;;;;10.60;79.50;;;;;;5085154;28;19908;-66
2022/03/15 11:07:40;;;;;;;;;;;10.70;78.80;;;;;;5084535;28;19916;-66
2022/03/15 11:10:13;;;;;;;;;;;10.80;77.80;;;;;;5084852;28;20179;-67
2022/03/15 11:13:13;;;;;;;;;;;10.80;77.40;;;;;;5083918;28;19909;-67
2022/03/15 11:15:43;;;;;;;;;;;10.80;77.90;;;;;;5084460;28;19909;-67
2022/03/15 11:18:10;;;;;;;;;;;10.90;77.70;;;;;;5084536;28;19919;-67
2022/03/15 11:20:38;;;;;;;;;;;10.80;77.90;;;;;;5084177;28;19908;-67
2022/03/15 11:23:05;;;;;;;;;;;10.90;78.30;;;;;;5084414;28;19934;-67
2022/03/15 11:25:35;;;;;;;;;;;10.90;76.80;;;;;;5084358;28;19915;-67
2022/03/15 11:28:04;;;;;;;;;;;10.80;76.50;;;;;;5084505;28;20156;-67
2022/03/15 11:30:29;;;;;;;;;;;10.70;76.60;;;;;;5084396;28;19979;-67
2022/03/15 11:32:55;;;;;;;;;;;10.80;76.80;;;;;;5066149;28;19919;-67
2022/03/15 11:35:23;;;;;;;;;;;10.90;76.50;;;;;;5095548;28;19969;-67
2022/03/15 11:37:49;;;;;;;;;;;10.90;75.80;;;;;;5104676;28;20188;-68
2022/03/15 11:40:18;;;;;;;;;;;10.90;75.80;;;;;;5091013;28;20006;-67
2022/03/15 11:42:56;;;;;;;;;;;11.00;74.40;;;;;;5083407;28;19954;-67
2022/03/15 11:45:33;;;;;;;;;;;11.00;74.20;;;;;;5083552;28;19940;-66
2022/03/15 11:48:16;;;;;;;;;;;11.00;74.70;;;;;;5083012;28;20219;-66
2022/03/15 11:51:13;;;;;;;;;;;11.00;74.30;;;;;;5083067;28;19920;-65
2022/03/15 11:53:58;;;;;;;;;;;11.00;74.20;;;;;;5082664;28;20111;-65
2022/03/15 11:56:58;;;;;;;;;;;10.90;74.80;;;;;;5082975;28;20096;-65
2022/03/15 11:59:23;;;;;;;;;;;10.90;75.00;;;;;;5078824;28;20207;-66
2022/03/15 12:01:51;;;;;;;;;;;10.80;75.30;;;;;;5082121;28;19991;-66
2022/03/15 12:04:17;;;;;;;;;;;10.90;74.60;;;;;;5082113;28;19909;-66
2022/03/15 12:06:54;;;;;;;;;;;10.80;74.90;;;;;;5082404;28;19947;-66
2022/03/15 12:09:21;;;;;;;;;;;10.80;74.90;;;;;;5083888;28;19988;-66
2022/03/15 12:11:47;;;;;;;;;;;10.90;74.50;;;;;;5082170;28;19939;-65
2022/03/15 12:14:17;;;;;;;;;;;10.90;74.40;;;;;;5082484;28;19950;-65
2022/03/15 12:16:47;;;;;;;;;;;11.00;74.00;;;;;;5083396;28;19908;-65
2022/03/15 12:19:35;;;;;;;;;;;11.00;73.00;;;;;;5082738;28;19931;-66
2022/03/15 12:22:03;;;;;;;;;;;11.00;73.40;;;;;;5083465;28;19935;-66
2022/03/15 12:24:39;;;;;;;;;;;11.10;71.90;;;;;;5083249;28;19922;-67
2022/03/15 12:27:09;;;;;;;;;;;11.00;72.10;;;;;;5082421;28;19912;-66
2022/03/15 12:29:36;;;;;;;;;;;11.00;71.70;;;;;;5083327;28;19908;-66
2022/03/15 12:32:14;;;;;;;;;;;10.90;72.30;;;;;;5083435;28;20112;-66
2022/03/15 12:34:42;;;;;;;;;;;11.00;71.70;;;;;;5083229;28;19912;-68
2022/03/15 12:37:08;;;;;;;;;;;11.00;71.80;;;;;;5083403;28;19938;-69
2022/03/15 12:39:33;;;;;;;;;;;11.00;71.50;;;;;;5083483;28;19912;-69
2022/03/15 12:42:09;;;;;;;;;;;11.00;71.60;;;;;;5082944;28;19912;-69
2022/03/15 12:45:06;;;;;;;;;;;11.00;71.50;;;;;;5084513;28;19984;-69
2022/03/15 12:47:32;;;;;;;;;;;11.10;70.90;;;;;;5084286;28;19931;-69
2022/03/15 12:50:14;;;;;;;;;;;11.10;70.70;;;;;;5083903;28;20072;-68
2022/03/15 12:52:52;;;;;;;;;;;11.10;70.70;;;;;;5083297;28;19924;-68
2022/03/15 12:55:25;;;;;;;;;;;11.10;70.10;;;;;;5083134;28;19962;-68
2022/03/15 12:57:55;;;;;;;;;;;11.10;68.90;;;;;;5084054;28;19912;-68
2022/03/15 13:00:23;;;;;;;;;;;11.10;69.40;;;;;;5084131;28;19924;-68
2022/03/15 13:02:50;;;;;;;;;;;11.10;69.70;;;;;;5083454;28;20230;-68
2022/03/15 13:05:17;;;;;;;;;;;11.10;69.60;;;;;;5084075;28;19908;-68
2022/03/15 13:07:46;;;;;;;;;;;11.10;69.00;;;;;;5084066;28;19909;-68
2022/03/15 13:10:13;;;;;;;;;;;11.20;69.10;;;;;;5083887;28;19939;-70
2022/03/15 13:12:42;;;;;;;;;;;11.20;69.10;;;;;;5083589;28;19931;-68
2022/03/15 13:15:08;;;;;;;;;;;11.10;69.30;;;;;;5083331;28;20203;-68
2022/03/15 13:17:36;;;;;;;;;;;11.10;69.40;;;;;;5083744;28;19917;-68
2022/03/15 13:20:02;;;;;;;;;;;11.10;69.80;;;;;;5083265;28;20018;-70
2022/03/15 13:22:28;;;;;;;;;;;11.20;69.20;;;;;;5083301;28;19908;-68
2022/03/15 13:24:55;;;;;;;;;;;11.20;69.30;;;;;;5083713;28;19909;-70
2022/03/15 13:27:22;;;;;;;;;;;11.30;68.80;;;;;;5083707;28;19909;-69
2022/03/15 13:29:47;;;;;;;;;;;11.30;68.20;;;;;;5083506;28;19909;-68
2022/03/15 13:32:20;;;;;;;;;;;11.20;68.30;;;;;;5083059;28;19951;-68
2022/03/15 13:34:53;;;;;;;;;;;11.20;68.20;;;;;;5083398;28;19908;-68
2022/03/15 13:37:20;;;;;;;;;;;11.20;68.70;;;;;;5083459;28;19945;-69
2022/03/15 13:39:45;;;;;;;;;;;11.10;69.20;;;;;;5083306;28;19950;-68
2022/03/15 13:42:15;;;;;;;;;;;11.10;69.20;;;;;;5081890;28;20130;-69
2022/03/15 13:44:41;;;;;;;;;;;11.10;69.40;;;;;;5066018;28;19916;-69
2022/03/15 13:47:10;;;;;;;;;;;11.00;69.80;;;;;;5065398;28;19912;-69
2022/03/15 13:49:37;;;;;;;;;;;11.00;70.40;;;;;;5083078;28;19908;-69
2022/03/15 13:52:08;;;;;;;;;;;11.00;70.70;;;;;;5081966;28;19913;-69
2022/03/15 13:55:02;;;;;;;;;;;11.00;71.30;;;;;;5083125;28;19912;-69
2022/03/15 13:57:34;;;;;;;;;;;11.00;72.20;;;;;;5083144;28;19915;-68
2022/03/15 14:00:12;;;;;;;;;;;10.90;72.90;;;;;;5082176;28;19929;-68
2022/03/15 14:02:40;;;;;;;;;;;10.90;74.30;;;;;;5082808;28;19908;-69
2022/03/15 14:05:08;;;;;;;;;;;10.80;75.60;;;;;;5083004;28;19909;-68
2022/03/15 14:07:35;;;;;;;;;;;10.90;76.20;;;;;;5082732;28;19909;-68
2022/03/15 14:10:08;;;;;;;;;;;10.80;77.10;;;;;;5083150;28;19967;-68
2022/03/15 14:12:34;;;;;;;;;;;10.80;77.70;;;;;;5082750;28;20249;-69
2022/03/15 14:15:13;;;;;;;;;;;10.80;77.80;;;;;;5083125;28;19984;-68
2022/03/15 14:17:43;;;;;;;;;;;10.80;79.50;;;;;;5082894;28;19909;-68
2022/03/15 14:20:13;;;;;;;;;;;10.70;80.40;;;;;;5081750;28;20111;-72
2022/03/15 14:22:48;;;;;;;;;;;10.80;82.20;;;;;;5082299;28;19983;-69
2022/03/15 14:25:20;;;;;;;;;;;10.70;81.40;;;;;;5083082;28;19908;-69
2022/03/15 14:27:45;;;;;;;;;;;10.70;82.60;;;;;;5086958;28;20246;-70
2022/03/15 14:30:14;;;;;;;;;;;10.70;82.10;;;;;;5087314;28;19909;-68